KONM

Socorro Municipal Airport

Socorro, New Mexico, USA
METAR KONM 182135Z AUTO 22010KT 10SM SCT029 SCT035 SCT050 29/14 A3010 RMK AO2 LTG DSNT W T02860135
Observed Flight Rules
Aug-18 @ 21:35 UTC (19 minutes ago) Visual Flight Rules
Wind Visibility Clouds
220° at 10 knots 10 miles
  • Scattered at 2,900' AGL
  • Scattered at 3,500' AGL
  • Scattered at 5,000' AGL
Temperatures Readings
Current 29°C / 84°F
Dewpoint 14°C / 57°F
Humidity 40%
Altimeter 30.1" Hg
Pressure 1019 hPa
Elevation 1410
METAR KONM 182135Z AUTO 22010KT 10SM SCT029 SCT035 SCT050 29/14 A3010 RMK AO2 LTG DSNT W T02860135
Observed Flight Rules
Aug-18 @ 21:35 UTC
(19 minutes ago)
VFR
Wind Visibility
220° at 10 knots 10 miles
Clouds
  • Scattered at 2,900' AGL
  • Scattered at 3,500' AGL
  • Scattered at 5,000' AGL
Temperature Dewpoint
29°C / 84°F 14°C / 57°F
Humidity Altimeter Pressure
40% 30.1" Hg 1019 hPa